createdAt,value
2018-10-05T00:01:37.126Z,10.60
2018-10-05T00:04:06.250Z,10.52
2018-10-05T00:06:35.297Z,10.46
2018-10-05T00:09:05.138Z,10.43
2018-10-05T00:11:34.378Z,10.41
2018-10-05T00:14:03.688Z,10.39
2018-10-05T00:16:33.130Z,10.38
2018-10-05T00:19:02.505Z,10.38
2018-10-05T00:21:31.923Z,10.28
2018-10-05T00:24:01.451Z,10.19
2018-10-05T00:26:30.883Z,10.09
2018-10-05T00:29:00.041Z,10.17
2018-10-05T00:31:29.485Z,10.15
2018-10-05T00:33:58.947Z,10.12
2018-10-05T00:36:28.214Z,10.09
2018-10-05T00:38:57.524Z,10.02
2018-10-05T00:41:26.921Z,10.11
2018-10-05T00:43:56.288Z,10.21
2018-10-05T00:46:25.663Z,10.14
2018-10-05T00:48:55.428Z,10.13
2018-10-05T00:51:24.538Z,10.10
2018-10-05T00:53:53.857Z,10.39
2018-10-05T00:56:23.219Z,10.45
2018-10-05T00:58:52.824Z,10.41
2018-10-05T01:01:22.116Z,10.28
2018-10-05T01:03:51.691Z,10.18
2018-10-05T01:06:21.084Z,10.23
2018-10-05T01:08:50.342Z,10.16
2018-10-05T01:11:19.807Z,10.15
2018-10-05T01:13:49.231Z,10.11
2018-10-05T01:16:18.756Z,10.08
2018-10-05T01:18:48.295Z,10.04
2018-10-05T01:21:17.496Z,9.98
2018-10-05T01:23:46.982Z,9.97
2018-10-05T01:26:16.442Z,9.89
2018-10-05T01:28:45.568Z,10.11
2018-10-05T01:31:14.948Z,10.12
2018-10-05T01:33:44.311Z,10.00
2018-10-05T01:36:13.584Z,10.00
2018-10-05T01:38:42.930Z,9.90
2018-10-05T01:41:12.535Z,9.80
2018-10-05T01:43:41.976Z,9.75
2018-10-05T01:46:11.393Z,9.74
2018-10-05T01:48:40.859Z,9.65
2018-10-05T01:51:10.202Z,9.65
2018-10-05T01:53:39.500Z,9.56
2018-10-05T01:56:08.916Z,9.54
2018-10-05T01:58:38.243Z,9.60
2018-10-05T02:01:07.620Z,9.50
2018-10-05T02:03:37.218Z,9.51
2018-10-05T02:06:06.837Z,9.48
2018-10-05T02:08:36.338Z,9.39
2018-10-05T02:11:05.748Z,9.46
2018-10-05T02:13:35.085Z,9.35
2018-10-05T02:16:04.660Z,9.55
2018-10-05T02:18:34.096Z,9.49
2018-10-05T02:21:03.560Z,9.47
2018-10-05T02:23:33.132Z,9.41
2018-10-05T02:26:02.244Z,9.41
2018-10-05T02:28:31.428Z,9.55
2018-10-05T02:31:01.127Z,9.50
2018-10-05T02:33:30.832Z,9.55
2018-10-05T02:36:00.264Z,9.48
2018-10-05T02:38:29.609Z,9.49
2018-10-05T02:40:59.037Z,9.55
2018-10-05T02:43:28.321Z,9.62
2018-10-05T02:45:57.640Z,9.62
2018-10-05T02:48:26.908Z,9.57
2018-10-05T02:50:56.206Z,9.73
2018-10-05T02:53:25.537Z,9.70
2018-10-05T02:55:55.003Z,9.60
2018-10-05T02:58:24.390Z,9.72
2018-10-05T03:01:04.561Z,9.54
2018-10-05T03:03:34.521Z,9.68
2018-10-05T03:06:03.933Z,9.54
2018-10-05T03:08:33.571Z,9.57
2018-10-05T03:11:03.238Z,9.57
2018-10-05T03:13:33.142Z,9.57
2018-10-05T03:16:02.409Z,9.69
2018-10-05T03:18:32.537Z,9.46
2018-10-05T03:21:01.774Z,9.59
2018-10-05T03:23:30.868Z,9.48
2018-10-05T03:26:00.352Z,9.63
2018-10-05T03:28:29.435Z,9.59
2018-10-05T03:30:58.878Z,9.56
2018-10-05T03:33:28.151Z,9.28
2018-10-05T03:35:57.443Z,9.26
2018-10-05T03:38:26.828Z,9.37
2018-10-05T03:40:56.134Z,9.31
2018-10-05T03:43:25.630Z,9.47
2018-10-05T03:45:55.054Z,9.39
2018-10-05T03:48:24.603Z,9.36
2018-10-05T03:50:54.054Z,9.46
2018-10-05T03:53:23.093Z,9.38
2018-10-05T03:55:52.506Z,9.36
2018-10-05T03:58:21.878Z,9.33
2018-10-05T04:00:51.374Z,9.38
2018-10-05T04:03:21.025Z,9.49
2018-10-05T04:05:50.468Z,9.44
2018-10-05T04:08:19.756Z,9.37
2018-10-05T04:10:49.182Z,9.30
2018-10-05T04:13:18.897Z,9.33
2018-10-05T04:15:48.455Z,9.44
2018-10-05T04:18:17.926Z,9.26
2018-10-05T04:20:47.450Z,9.46
2018-10-05T04:23:16.548Z,9.38
2018-10-05T04:25:46.014Z,9.34
2018-10-05T04:28:15.115Z,9.38
2018-10-05T04:30:44.251Z,9.47
2018-10-05T04:33:13.608Z,9.59
2018-10-05T04:35:42.687Z,9.58
2018-10-05T04:38:12.103Z,9.67
2018-10-05T04:40:41.506Z,9.74
2018-10-05T04:43:10.695Z,9.78
2018-10-05T04:45:40.118Z,9.98
2018-10-05T04:48:09.617Z,9.79
2018-10-05T04:50:39.080Z,9.81
2018-10-05T04:53:08.590Z,9.93
2018-10-05T04:55:37.856Z,10.24
2018-10-05T04:58:06.900Z,10.12
2018-10-05T05:00:36.014Z,10.04
2018-10-05T05:03:05.934Z,10.09
2018-10-05T05:05:35.048Z,10.07
2018-10-05T05:08:04.150Z,10.15
2018-10-05T05:10:33.190Z,10.27
2018-10-05T05:13:02.313Z,10.50
2018-10-05T05:15:31.747Z,10.49
2018-10-05T05:18:01.405Z,10.52
2018-10-05T05:20:30.778Z,10.58
2018-10-05T05:23:00.230Z,10.68
2018-10-05T05:25:29.323Z,10.91
2018-10-05T05:27:58.380Z,10.87
2018-10-05T05:30:27.885Z,10.91
2018-10-05T05:32:57.306Z,11.10
2018-10-05T05:35:26.797Z,11.25
2018-10-05T05:37:56.074Z,11.20
2018-10-05T05:40:25.282Z,11.27
2018-10-05T05:42:54.266Z,11.34
2018-10-05T05:45:23.638Z,11.38
2018-10-05T05:47:52.818Z,11.46
2018-10-05T05:50:21.925Z,11.58
2018-10-05T05:52:51.073Z,12.12
2018-10-05T05:55:20.184Z,11.91
2018-10-05T05:57:49.255Z,12.08
2018-10-05T06:00:18.298Z,11.91
2018-10-05T06:02:47.500Z,12.05
2018-10-05T06:05:16.563Z,12.08
2018-10-05T06:07:45.744Z,12.03
2018-10-05T06:10:14.783Z,12.11
2018-10-05T06:12:43.830Z,12.07
2018-10-05T06:15:13.010Z,12.25
2018-10-05T06:17:42.149Z,12.27
2018-10-05T06:20:11.247Z,12.36
2018-10-05T06:22:40.552Z,12.60
2018-10-05T06:25:09.617Z,12.39
2018-10-05T06:27:38.854Z,12.45
2018-10-05T06:30:07.986Z,12.44
2018-10-05T06:32:37.022Z,12.59
2018-10-05T06:35:06.200Z,12.65
2018-10-05T06:37:35.610Z,12.65
2018-10-05T06:40:04.677Z,12.79
2018-10-05T06:42:33.845Z,12.93
2018-10-05T06:45:02.908Z,13.20
2018-10-05T06:47:31.991Z,13.11
2018-10-05T06:50:01.166Z,13.24
2018-10-05T06:52:30.203Z,13.27
2018-10-05T06:54:59.303Z,13.35
2018-10-05T06:57:28.408Z,13.65
2018-10-05T06:59:57.471Z,13.85
2018-10-05T07:02:26.554Z,13.97
2018-10-05T07:04:55.745Z,14.12
2018-10-05T07:07:25.810Z,14.17
2018-10-05T07:09:54.884Z,14.32
2018-10-05T07:12:24.076Z,14.30
2018-10-05T07:14:53.139Z,14.18
2018-10-05T07:17:22.180Z,14.44
2018-10-05T07:19:51.235Z,14.69
2018-10-05T07:22:20.337Z,14.94
2018-10-05T07:24:49.373Z,15.10
2018-10-05T07:27:18.550Z,14.99
2018-10-05T07:29:47.759Z,14.89
2018-10-05T07:32:16.915Z,14.99
2018-10-05T07:34:45.987Z,14.95
2018-10-05T07:37:15.046Z,15.08
2018-10-05T07:39:44.159Z,15.24
2018-10-05T07:42:13.247Z,15.23
2018-10-05T07:44:42.522Z,15.34
2018-10-05T07:47:11.959Z,15.23
2018-10-05T07:49:41.107Z,15.31
2018-10-05T07:52:10.142Z,15.53
2018-10-05T07:54:39.231Z,15.72
2018-10-05T07:57:08.578Z,15.97
2018-10-05T07:59:37.928Z,16.04
2018-10-05T08:02:07.519Z,16.46
2018-10-05T08:04:36.554Z,16.44
2018-10-05T08:07:05.712Z,16.79
2018-10-05T08:09:35.164Z,17.01
2018-10-05T08:12:04.171Z,17.58
2018-10-05T08:14:33.215Z,17.38
2018-10-05T08:17:03.140Z,17.65
2018-10-05T08:19:32.392Z,17.43
2018-10-05T08:22:01.495Z,17.32
2018-10-05T08:24:30.771Z,17.38
2018-10-05T08:26:59.914Z,17.57
2018-10-05T08:29:29.085Z,18.16
2018-10-05T08:31:58.299Z,18.20
2018-10-05T08:34:27.667Z,18.43
2018-10-05T08:36:56.784Z,18.93
2018-10-05T08:39:26.135Z,18.80
2018-10-05T08:41:55.239Z,19.36
2018-10-05T08:44:24.628Z,19.58
2018-10-05T08:46:53.686Z,19.28
2018-10-05T08:49:23.160Z,19.37
2018-10-05T08:51:52.674Z,19.61
2018-10-05T08:54:22.031Z,19.25
2018-10-05T08:56:51.305Z,19.60
2018-10-05T08:59:20.367Z,19.51
2018-10-05T09:01:49.494Z,19.42
2018-10-05T09:04:18.632Z,19.43
2018-10-05T09:06:48.125Z,19.67
2018-10-05T09:09:17.238Z,19.90
2018-10-05T09:11:46.271Z,19.58
2018-10-05T09:14:15.668Z,19.62
2018-10-05T09:16:44.739Z,19.92
2018-10-05T09:19:14.118Z,19.68
2018-10-05T09:21:43.221Z,19.48
2018-10-05T09:24:12.387Z,19.92
2018-10-05T09:26:41.381Z,19.84
2018-10-05T09:29:10.410Z,19.61
2018-10-05T09:31:39.451Z,19.63
2018-10-05T09:34:08.508Z,19.38
2018-10-05T09:36:37.514Z,19.90
2018-10-05T09:39:07.868Z,20.00
2018-10-05T09:41:37.136Z,19.47
2018-10-05T09:44:07.445Z,19.68
2018-10-05T09:46:36.547Z,19.67
2018-10-05T09:49:05.657Z,19.75
2018-10-05T09:51:35.120Z,19.67
2018-10-05T09:54:04.158Z,19.00
2018-10-05T09:56:33.173Z,19.72
2018-10-05T09:59:02.504Z,19.48
2018-10-05T10:01:36.964Z,19.73
2018-10-05T10:04:06.473Z,20.08
2018-10-05T10:06:35.974Z,19.64
2018-10-05T10:09:06.543Z,19.54
2018-10-05T10:11:36.172Z,19.57
2018-10-05T10:14:06.010Z,19.74
2018-10-05T10:16:35.463Z,20.22
2018-10-05T10:19:04.641Z,20.24
2018-10-05T10:21:33.700Z,19.79
2018-10-05T10:24:02.851Z,19.79
2018-10-05T10:26:32.124Z,19.95
2018-10-05T10:29:01.169Z,19.99
2018-10-05T10:31:30.233Z,20.15
2018-10-05T10:33:59.666Z,20.11
2018-10-05T10:36:28.735Z,20.17
2018-10-05T10:38:57.802Z,20.08
2018-10-05T10:41:27.019Z,19.95
2018-10-05T10:43:56.206Z,19.88
2018-10-05T10:46:25.262Z,19.79
2018-10-05T10:48:54.484Z,20.43
2018-10-05T10:51:23.562Z,20.55
2018-10-05T10:53:53.024Z,20.65
2018-10-05T10:56:22.410Z,19.58
2018-10-05T10:58:51.710Z,20.08
2018-10-05T11:01:21.024Z,20.14
2018-10-05T11:03:50.307Z,20.31
2018-10-05T11:06:19.568Z,20.34
2018-10-05T11:08:48.612Z,20.12
2018-10-05T11:11:17.847Z,20.44
2018-10-05T11:13:46.950Z,20.35
2018-10-05T11:16:16.270Z,20.30
2018-10-05T11:18:45.899Z,20.26
2018-10-05T11:21:15.076Z,20.51
2018-10-05T11:23:45.232Z,20.34
2018-10-05T11:26:14.484Z,20.38
2018-10-05T11:28:43.514Z,20.48
2018-10-05T11:31:12.603Z,20.54
2018-10-05T11:33:41.773Z,20.22
2018-10-05T11:36:10.820Z,20.17
2018-10-05T11:38:40.052Z,20.69
2018-10-05T11:41:09.144Z,20.06
2018-10-05T11:43:38.224Z,19.60
2018-10-05T11:46:07.588Z,20.11
2018-10-05T11:48:36.600Z,19.86
2018-10-05T11:51:05.706Z,20.57
2018-10-05T11:53:34.976Z,20.28
2018-10-05T11:56:04.047Z,20.42
2018-10-05T11:58:33.092Z,20.49
2018-10-05T12:01:02.240Z,20.24
2018-10-05T12:03:31.644Z,20.15
2018-10-05T12:06:00.723Z,20.19
2018-10-05T12:08:29.819Z,19.70
2018-10-05T12:10:58.955Z,20.42
2018-10-05T12:13:27.931Z,20.21
2018-10-05T12:15:57.293Z,19.97
2018-10-05T12:18:26.592Z,20.09
2018-10-05T12:20:55.692Z,20.45
2018-10-05T12:23:25.083Z,20.02
2018-10-05T12:25:54.484Z,20.14
2018-10-05T12:28:23.840Z,19.83
2018-10-05T12:30:53.476Z,20.21
2018-10-05T12:33:22.899Z,20.25
2018-10-05T12:35:52.047Z,20.74
2018-10-05T12:38:21.378Z,20.38
2018-10-05T12:40:50.472Z,20.19
2018-10-05T12:43:19.546Z,20.61
2018-10-05T12:45:48.622Z,20.34
2018-10-05T12:48:18.083Z,19.93
2018-10-05T12:50:47.778Z,19.93
2018-10-05T12:53:17.161Z,20.37
2018-10-05T12:55:46.272Z,20.61
2018-10-05T12:58:15.393Z,20.45
2018-10-05T13:00:44.481Z,20.08
2018-10-05T13:03:13.554Z,20.40
2018-10-05T13:05:42.962Z,20.03
2018-10-05T13:08:11.992Z,20.13
2018-10-05T13:10:41.005Z,20.18
2018-10-05T13:13:10.157Z,20.02
2018-10-05T13:15:39.257Z,20.00
2018-10-05T13:18:08.815Z,20.22
2018-10-05T13:20:37.923Z,19.92
2018-10-05T13:23:07.460Z,20.15
2018-10-05T13:25:36.515Z,19.89
2018-10-05T13:28:05.566Z,19.68
2018-10-05T13:30:34.611Z,19.66
2018-10-05T13:33:03.580Z,19.52
2018-10-05T13:35:32.615Z,20.01
2018-10-05T13:38:02.069Z,20.50
2018-10-05T13:40:31.399Z,20.03
2018-10-05T13:43:00.434Z,19.96
2018-10-05T13:45:29.516Z,20.18
2018-10-05T13:47:58.618Z,20.40
2018-10-05T13:50:27.600Z,20.28
2018-10-05T13:52:56.860Z,19.86
2018-10-05T13:55:26.238Z,19.97
2018-10-05T13:57:55.354Z,19.40
2018-10-05T14:00:24.419Z,19.82
2018-10-05T14:02:53.439Z,20.23
2018-10-05T14:05:22.578Z,20.04
2018-10-05T14:07:52.520Z,19.74
2018-10-05T14:10:21.598Z,19.79
2018-10-05T14:12:50.594Z,19.55
2018-10-05T14:15:19.652Z,19.47
2018-10-05T14:17:49.168Z,19.92
2018-10-05T14:20:18.859Z,19.86
2018-10-05T14:22:47.866Z,19.37
2018-10-05T14:25:17.196Z,19.80
2018-10-05T14:27:46.595Z,19.86
2018-10-05T14:30:15.571Z,19.64
2018-10-05T14:32:45.075Z,19.85
2018-10-05T14:35:14.139Z,19.52
2018-10-05T14:37:43.171Z,19.82
2018-10-05T14:40:13.479Z,19.70
2018-10-05T14:42:42.920Z,19.63
2018-10-05T14:45:12.169Z,19.28
2018-10-05T14:47:41.461Z,19.73
2018-10-05T14:50:10.902Z,19.54
2018-10-05T14:52:40.500Z,19.62
2018-10-05T14:55:09.602Z,19.86
2018-10-05T14:57:38.892Z,19.18
2018-10-05T15:00:08.292Z,19.51
2018-10-05T15:02:37.875Z,20.01
2018-10-05T15:05:07.304Z,20.15
2018-10-05T15:07:36.532Z,20.40
2018-10-05T15:10:05.943Z,20.42
2018-10-05T15:12:35.315Z,21.08
2018-10-05T15:15:04.676Z,21.15
2018-10-05T15:17:33.991Z,21.15
2018-10-05T15:20:03.340Z,20.65
2018-10-05T15:22:32.963Z,20.79
2018-10-05T15:25:02.323Z,20.46
2018-10-05T15:27:31.654Z,20.26
2018-10-05T15:30:00.956Z,20.55
2018-10-05T15:32:30.458Z,19.79
2018-10-05T15:34:59.742Z,20.08
2018-10-05T15:37:28.774Z,19.43
2018-10-05T15:39:57.792Z,19.05
2018-10-05T15:42:27.252Z,18.96
2018-10-05T15:44:56.472Z,18.29
2018-10-05T15:47:25.954Z,17.73
2018-10-05T15:49:55.471Z,17.82
2018-10-05T15:52:24.650Z,17.77
2018-10-05T15:54:53.748Z,17.37
2018-10-05T15:57:22.864Z,17.72
2018-10-05T15:59:52.239Z,17.46
2018-10-05T16:02:21.335Z,17.66
2018-10-05T16:04:51.026Z,17.42
2018-10-05T16:07:20.387Z,17.22
2018-10-05T16:09:49.655Z,17.08
2018-10-05T16:12:19.018Z,17.42
2018-10-05T16:14:48.183Z,17.08
2018-10-05T16:17:17.556Z,16.91
2018-10-05T16:19:46.624Z,16.85
2018-10-05T16:22:15.788Z,16.70
2018-10-05T16:24:45.637Z,16.75
2018-10-05T16:27:14.908Z,16.92
2018-10-05T16:29:44.084Z,16.99
2018-10-05T16:32:13.335Z,16.80
2018-10-05T16:34:42.614Z,16.85
2018-10-05T16:37:11.755Z,16.91
2018-10-05T16:39:40.815Z,16.65
2018-10-05T16:42:09.920Z,16.54
2018-10-05T16:44:39.017Z,16.68
2018-10-05T16:47:08.132Z,17.03
2018-10-05T16:49:37.552Z,16.80
2018-10-05T16:52:06.974Z,16.61
2018-10-05T16:54:36.388Z,17.02
2018-10-05T16:57:05.492Z,16.80
2018-10-05T16:59:34.875Z,16.68
2018-10-05T17:02:04.230Z,16.55
2018-10-05T17:04:33.334Z,16.47
2018-10-05T17:07:02.430Z,16.53
2018-10-05T17:09:31.984Z,16.46
2018-10-05T17:12:01.510Z,16.85
2018-10-05T17:14:30.894Z,17.14
2018-10-05T17:17:00.054Z,16.75
2018-10-05T17:19:29.142Z,16.77
2018-10-05T17:21:58.560Z,16.80
2018-10-05T17:24:27.981Z,16.75
2018-10-05T17:26:57.417Z,16.69
2018-10-05T17:29:26.921Z,16.60
2018-10-05T17:31:56.246Z,16.63
2018-10-05T17:34:25.519Z,16.68
2018-10-05T17:36:54.684Z,16.65
2018-10-05T17:39:23.907Z,16.67
2018-10-05T17:41:53.424Z,16.75
2018-10-05T17:44:22.910Z,16.72
2018-10-05T17:46:52.672Z,16.69
2018-10-05T17:49:22.111Z,16.67
2018-10-05T17:51:51.583Z,16.62
2018-10-05T17:54:20.934Z,16.61
2018-10-05T17:56:50.338Z,16.47
2018-10-05T17:59:19.763Z,16.36
2018-10-05T18:01:49.163Z,16.26
2018-10-05T18:04:18.452Z,16.16
2018-10-05T18:06:47.665Z,16.20
2018-10-05T18:09:16.870Z,16.20
2018-10-05T18:11:45.982Z,16.27
2018-10-05T18:14:15.098Z,16.29
2018-10-05T18:16:44.152Z,16.36
2018-10-05T18:19:13.204Z,16.39
2018-10-05T18:21:42.336Z,16.39
2018-10-05T18:24:11.483Z,16.38
2018-10-05T18:26:40.680Z,16.67
2018-10-05T18:29:10.008Z,16.46
2018-10-05T18:31:39.063Z,16.33
2018-10-05T18:34:08.359Z,16.31
2018-10-05T18:36:37.729Z,16.28
2018-10-05T18:39:09.012Z,16.36
2018-10-05T18:41:38.417Z,16.45
2018-10-05T18:44:07.630Z,16.32
2018-10-05T18:46:36.583Z,16.29
2018-10-05T18:49:05.870Z,16.39
2018-10-05T18:51:34.907Z,16.33
2018-10-05T18:54:04.280Z,16.32
2018-10-05T18:56:44.083Z,16.15
2018-10-05T18:59:13.242Z,16.08
2018-10-05T19:01:42.338Z,16.05
2018-10-05T19:04:11.611Z,16.07
2018-10-05T19:06:40.792Z,16.13
2018-10-05T19:09:10.152Z,16.10
2018-10-05T19:11:39.733Z,16.08
2018-10-05T19:14:08.798Z,16.07
2018-10-05T19:16:38.107Z,15.97
2018-10-05T19:19:07.216Z,15.91
2018-10-05T19:21:36.236Z,15.84
2018-10-05T19:24:05.332Z,15.90
2018-10-05T19:26:34.630Z,15.81
2018-10-05T19:29:03.820Z,15.81
2018-10-05T19:31:32.892Z,15.80
2018-10-05T19:34:01.931Z,15.83
2018-10-05T19:36:31.053Z,15.77
2018-10-05T19:39:00.166Z,15.71
2018-10-05T19:41:29.814Z,15.78
2018-10-05T19:43:58.867Z,15.73
2018-10-05T19:46:28.300Z,15.73
2018-10-05T19:48:57.810Z,15.82
2018-10-05T19:51:27.210Z,15.69
2018-10-05T19:53:56.332Z,15.54
2018-10-05T19:56:25.808Z,15.47
2018-10-05T19:58:55.000Z,15.45
2018-10-05T20:01:24.894Z,15.40
2018-10-05T20:03:54.254Z,15.41
2018-10-05T20:06:23.628Z,15.35
2018-10-05T20:08:52.828Z,15.29
2018-10-05T20:11:21.892Z,15.22
2018-10-05T20:13:50.940Z,15.19
2018-10-05T20:16:20.091Z,15.15
2018-10-05T20:18:49.205Z,15.07
2018-10-05T20:21:18.297Z,15.07
2018-10-05T20:23:47.420Z,15.12
2018-10-05T20:26:16.478Z,15.17
2018-10-05T20:28:45.552Z,15.16
2018-10-05T20:31:14.658Z,15.19
2018-10-05T20:33:43.707Z,15.19
2018-10-05T20:36:12.956Z,15.20
2018-10-05T20:38:42.123Z,15.18
2018-10-05T20:41:11.206Z,15.05
2018-10-05T20:43:40.365Z,14.92
2018-10-05T20:46:09.476Z,14.83
2018-10-05T20:48:38.904Z,14.75
2018-10-05T20:51:07.927Z,14.71
2018-10-05T20:53:37.664Z,14.67
2018-10-05T20:56:07.234Z,14.61
2018-10-05T20:58:36.652Z,14.66
2018-10-05T21:01:06.005Z,14.54
2018-10-05T21:03:35.311Z,14.45
2018-10-05T21:06:04.806Z,14.37
2018-10-05T21:08:33.856Z,14.38
2018-10-05T21:11:03.136Z,14.40
2018-10-05T21:13:32.165Z,14.36
2018-10-05T21:16:01.630Z,14.34
2018-10-05T21:18:30.758Z,14.33
2018-10-05T21:21:00.024Z,14.23
2018-10-05T21:23:29.472Z,14.19
2018-10-05T21:25:59.025Z,14.13
2018-10-05T21:28:28.326Z,14.07
2018-10-05T21:30:57.626Z,14.05
2018-10-05T21:33:27.004Z,13.99
2018-10-05T21:35:56.435Z,13.99
2018-10-05T21:38:26.042Z,13.94
2018-10-05T21:40:55.602Z,13.94
2018-10-05T21:43:24.959Z,13.98
2018-10-05T21:45:54.413Z,13.93
2018-10-05T21:48:23.789Z,13.89
2018-10-05T21:50:53.313Z,13.86
2018-10-05T21:53:22.613Z,13.79
2018-10-05T21:55:51.879Z,13.85
2018-10-05T21:58:21.070Z,13.75
2018-10-05T22:00:50.111Z,13.73
2018-10-05T22:03:19.175Z,13.74
2018-10-05T22:05:48.556Z,13.72
2018-10-05T22:08:17.615Z,13.77
2018-10-05T22:10:46.718Z,13.68
2018-10-05T22:13:15.793Z,13.78
2018-10-05T22:15:44.944Z,13.76
2018-10-05T22:18:14.014Z,13.49
2018-10-05T22:20:43.145Z,13.48
2018-10-05T22:23:12.640Z,13.38
2018-10-05T22:25:42.029Z,13.31
2018-10-05T22:28:11.214Z,13.34
2018-10-05T22:30:40.360Z,13.25
2018-10-05T22:33:09.463Z,13.28
2018-10-05T22:35:38.634Z,13.24
2018-10-05T22:38:08.122Z,13.22
2018-10-05T22:40:37.208Z,13.25
2018-10-05T22:43:06.305Z,13.14
2018-10-05T22:45:35.674Z,13.13
2018-10-05T22:48:04.807Z,13.13
2018-10-05T22:50:33.940Z,13.14
2018-10-05T22:53:03.166Z,13.09
2018-10-05T22:55:32.344Z,13.03
2018-10-05T22:58:01.518Z,13.08
2018-10-05T23:00:30.633Z,13.07
2018-10-05T23:02:59.864Z,12.95
2018-10-05T23:05:29.168Z,12.91
2018-10-05T23:07:58.646Z,12.87
2018-10-05T23:10:28.031Z,12.77
2018-10-05T23:12:57.434Z,12.81
2018-10-05T23:15:27.574Z,12.85
2018-10-05T23:17:56.685Z,12.93
2018-10-05T23:20:26.078Z,12.77
2018-10-05T23:22:55.475Z,12.78
2018-10-05T23:25:25.050Z,12.93
2018-10-05T23:27:54.110Z,12.75
2018-10-05T23:30:23.360Z,12.71
2018-10-05T23:32:52.898Z,12.62
2018-10-05T23:35:22.433Z,12.54
2018-10-05T23:37:51.667Z,12.51
2018-10-05T23:40:20.760Z,12.60
2018-10-05T23:42:49.914Z,12.72
2018-10-05T23:45:19.437Z,12.71
2018-10-05T23:47:48.516Z,12.81
2018-10-05T23:50:17.723Z,12.67
2018-10-05T23:52:47.990Z,12.64
2018-10-05T23:55:17.123Z,12.83
2018-10-05T23:57:46.390Z,12.67
